Time;durP1;ratioP1;P1;durP2;ratioP2;P2;SDS_P1;SDS_P2;PMS_P1;PMS_P2;Temp;Humidity;BMP_temperature;BMP_pressure;BME280_temperature;BME280_humidity;BME280_pressure;Samples;Min_cycle;Max_cycle;Signal;HPM_P1;HPM_P2
2023/04/23 06:46:29;;;;;;;2.55;0.90;;;;;;;12.41;77.27;96018.28;2080504;28;21091;-59
2023/04/23 06:48:55;;;;;;;1.73;0.90;;;;;;;12.77;74.39;96023.91;2099410;27;20554;-60
2023/04/23 06:51:31;;;;;;;1.40;0.80;;;;;;;12.66;75.49;96020.19;2084288;28;20406;-59
2023/04/23 06:54:01;;;;;;;1.73;0.80;;;;;;;12.54;75.26;96003.50;2084415;28;20557;-59
2023/04/23 06:55:02;;;;;;;2.10;0.70;;;;;;;12.79;75.37;96009.78;2081869;28;20200;-59
2023/04/23 06:56:04;;;;;;;2.08;0.70;;;;;;;12.95;74.67;96009.66;2075996;28;20227;-59
2023/04/23 06:57:06;;;;;;;1.63;0.88;;;;;;;12.95;74.78;96009.66;2070716;28;20645;-59
2023/04/23 06:58:07;;;;;;;1.75;1.00;;;;;;;13.12;74.39;96011.19;2072836;28;20263;-60
2023/04/23 06:59:08;;;;;;;3.92;1.02;;;;;;;13.16;73.82;96007.41;2071210;28;20616;-60
2023/04/23 07:00:11;;;;;;;2.60;0.80;;;;;;;13.18;73.28;96010.78;2073336;28;20303;-60
2023/04/23 07:01:12;;;;;;;1.10;0.77;;;;;;;13.04;72.96;96016.09;2072258;28;20725;-60
2023/04/23 07:02:14;;;;;;;5.43;0.80;;;;;;;13.18;73.49;95996.81;2073491;28;20217;-59
2023/04/23 07:03:15;;;;;;;3.10;1.00;;;;;;;13.26;73.57;96017.31;2073085;28;20296;-61
2023/04/23 07:05:46;;;;;;;1.40;0.80;;;;;;;13.14;74.30;96008.44;2097014;27;20547;-60
2023/04/23 07:08:20;;;;;;;1.20;0.70;;;;;;;12.93;74.06;96000.22;2085902;28;20556;-63
2023/04/23 07:13:08;;;;;;;3.15;1.10;;;;;;;12.69;74.65;96004.28;2084620;28;20552;-60
2023/04/23 07:15:56;;;;;;;2.20;1.23;;;;;;;12.38;74.38;95997.53;2079909;27;20558;-61
2023/04/23 07:28:18;;;;;;;1.92;1.42;;;;;;;12.64;74.91;96005.53;2082680;28;20562;-59
2023/04/23 07:29:20;;;;;;;2.55;1.20;;;;;;;12.60;74.37;96001.41;2081489;28;20667;-59
2023/04/23 07:30:24;;;;;;;2.42;1.38;;;;;;;12.57;73.53;96005.06;2082690;28;20192;-59
2023/04/23 07:31:27;;;;;;;3.38;1.40;;;;;;;12.62;74.13;96002.16;2072865;28;20328;-59
2023/04/23 07:32:28;;;;;;;1.48;1.00;;;;;;;12.88;73.71;96003.94;2074765;28;20240;-59
2023/04/23 07:33:30;;;;;;;3.63;1.10;;;;;;;13.04;72.45;95990.72;2073220;28;20271;-59
2023/04/23 07:34:32;;;;;;;3.67;1.17;;;;;;;12.96;72.07;95974.63;2074242;28;20208;-59
2023/04/23 07:35:34;;;;;;;2.88;1.30;;;;;;;13.11;72.73;95993.75;2072603;28;20284;-59
2023/04/23 07:36:36;;;;;;;1.77;1.20;;;;;;;12.86;73.53;95995.38;2067011;28;20248;-59
2023/04/23 07:37:37;;;;;;;2.58;1.48;;;;;;;13.20;72.48;95994.94;2077925;28;20193;-59
2023/04/23 07:38:38;;;;;;;1.70;1.23;;;;;;;13.32;72.10;95985.41;2078381;28;20204;-59
2023/04/23 07:39:40;;;;;;;2.88;1.00;;;;;;;13.49;71.53;95997.47;2067275;28;20225;-59
2023/04/23 07:40:44;;;;;;;1.90;1.17;;;;;;;13.56;71.38;95993.50;2061920;28;20209;-59
2023/04/23 07:41:46;;;;;;;1.90;1.10;;;;;;;13.71;70.90;95994.22;2063295;28;20194;-59
2023/04/23 07:42:48;;;;;;;3.65;1.20;;;;;;;13.79;69.97;95998.94;2067236;28;20233;-59
2023/04/23 07:43:49;;;;;;;5.15;1.33;;;;;;;13.80;70.41;95996.25;2067162;28;20198;-59
2023/04/23 07:44:51;;;;;;;2.30;1.30;;;;;;;13.78;70.62;95997.28;2065964;28;20210;-59
2023/04/23 07:45:52;;;;;;;4.18;1.50;;;;;;;13.75;71.00;95990.47;2064856;28;20632;-59
2023/04/23 07:46:54;;;;;;;2.20;1.10;;;;;;;13.82;70.53;95993.50;2064850;28;20241;-59
2023/04/23 07:47:56;;;;;;;2.35;1.30;;;;;;;13.80;69.64;95992.75;2066230;28;20210;-59
2023/04/23 07:48:57;;;;;;;1.83;1.20;;;;;;;13.68;70.12;95984.78;2062358;28;20642;-58
2023/04/23 07:49:59;;;;;;;2.78;1.30;;;;;;;13.63;70.06;95986.03;2063253;28;20221;-58
2023/04/23 07:52:45;;;;;;;3.65;1.52;;;;;;;13.35;70.62;95982.63;2084696;28;21056;-58
2023/04/23 07:53:50;;;;;;;2.83;1.48;;;;;;;13.25;70.11;95986.78;2083137;28;20216;-58
2023/04/23 07:54:51;;;;;;;5.18;1.23;;;;;;;13.29;69.85;95989.09;2079034;28;20648;-58
2023/04/23 07:55:54;;;;;;;2.95;1.63;;;;;;;13.45;69.59;95985.50;2075531;28;20267;-58
2023/04/23 07:56:56;;;;;;;8.02;4.00;;;;;;;13.33;69.96;95981.84;2072616;28;20194;-59
2023/04/23 07:57:57;;;;;;;7.95;4.38;;;;;;;13.42;69.72;95983.94;2070969;28;20253;-60
2023/04/23 07:58:59;;;;;;;4.70;1.85;;;;;;;13.28;69.64;95982.19;2073838;28;20578;-60
2023/04/23 08:00:01;;;;;;;15.50;8.73;;;;;;;13.37;70.08;95975.53;2073875;28;20198;-60
2023/04/23 08:01:02;;;;;;;11.73;6.03;;;;;;;13.38;70.14;95982.44;2073661;28;20801;-60
2023/04/23 08:02:05;;;;;;;2.20;1.20;;;;;;;13.65;69.66;95969.25;2072733;28;20197;-60
2023/04/23 08:03:06;;;;;;;2.60;1.23;;;;;;;14.18;68.69;95971.75;2076442;28;20205;-61
2023/04/23 08:04:08;;;;;;;3.63;1.30;;;;;;;14.32;68.30;95972.56;2073865;28;20206;-61
2023/04/23 08:05:10;;;;;;;6.15;1.45;;;;;;;14.24;68.01;95972.28;2073638;28;20349;-62
2023/04/23 08:06:11;;;;;;;2.70;1.10;;;;;;;14.09;68.31;95971.56;2070244;28;20732;-61
2023/04/23 08:07:13;;;;;;;2.28;1.50;;;;;;;13.76;69.00;95968.50;2074295;28;20240;-61
2023/04/23 08:08:15;;;;;;;2.60;1.38;;;;;;;13.95;68.83;95941.00;2073589;28;20197;-62
2023/04/23 08:09:16;;;;;;;3.08;1.52;;;;;;;14.34;65.76;95958.38;2073270;28;20282;-62
2023/04/23 08:10:18;;;;;;;2.28;1.38;;;;;;;14.21;66.13;95968.91;2074024;28;21088;-61
2023/04/23 08:11:19;;;;;;;3.25;1.48;;;;;;;14.34;66.03;95963.63;2072691;28;20232;-61
2023/04/23 08:12:21;;;;;;;2.85;1.60;;;;;;;14.20;65.72;95961.16;2073752;28;20213;-60
2023/04/23 08:13:22;;;;;;;2.30;1.55;;;;;;;14.16;66.24;95942.13;2073002;28;20856;-60
2023/04/23 08:14:24;;;;;;;3.85;1.70;;;;;;;14.41;66.23;95960.56;2075168;28;20202;-61
2023/04/23 08:15:25;;;;;;;3.00;1.42;;;;;;;14.61;66.43;95967.88;2073441;28;20213;-61
2023/04/23 08:16:27;;;;;;;1.50;1.20;;;;;;;14.52;66.12;95963.28;2074352;28;20288;-61
2023/04/23 08:17:30;;;;;;;2.22;1.40;;;;;;;14.48;66.75;95965.28;2074202;28;20216;-61
2023/04/23 08:18:32;;;;;;;2.20;1.60;;;;;;;14.52;66.55;95968.53;2070701;28;20240;-61
2023/04/23 08:19:33;;;;;;;2.35;1.20;;;;;;;14.28;66.88;95955.34;2071768;28;20293;-61
2023/04/23 08:20:35;;;;;;;2.50;1.23;;;;;;;14.42;66.69;95962.25;2073337;28;20205;-61
2023/04/23 08:21:36;;;;;;;3.83;1.42;;;;;;;14.36;66.08;95959.13;2070692;28;20209;-60
2023/04/23 08:22:38;;;;;;;2.40;1.27;;;;;;;14.36;66.48;95955.66;2070983;28;20303;-61
2023/04/23 08:23:39;;;;;;;2.28;0.95;;;;;;;14.53;66.81;95962.34;2073808;28;20205;-61
2023/04/23 08:24:42;;;;;;;1.55;1.10;;;;;;;14.51;66.85;95946.69;2074782;28;20205;-61
2023/04/23 08:25:43;;;;;;;2.47;1.30;;;;;;;14.76;65.82;95955.44;2074943;28;20197;-61
2023/04/23 08:26:45;;;;;;;3.67;1.50;;;;;;;14.59;66.23;95951.38;2075175;28;20202;-61
2023/04/23 08:27:46;;;;;;;2.55;1.40;;;;;;;14.61;65.80;95944.22;2075045;28;20197;-61
2023/04/23 08:28:48;;;;;;;2.17;1.10;;;;;;;14.74;65.99;95951.25;2072383;28;20563;-61
2023/04/23 08:29:50;;;;;;;1.48;0.95;;;;;;;14.68;65.31;95950.75;2072332;28;20668;-61
2023/04/23 08:30:52;;;;;;;2.60;1.20;;;;;;;14.53;66.22;95955.28;2071837;28;20544;-61
2023/04/23 08:31:54;;;;;;;1.88;1.13;;;;;;;14.56;67.08;95945.50;2073925;28;20212;-61
2023/04/23 08:32:56;;;;;;;3.75;1.70;;;;;;;14.52;66.05;95958.03;2074874;28;20229;-61
2023/04/23 08:33:58;;;;;;;9.60;6.05;;;;;;;14.55;65.90;95942.06;2074314;28;20209;-59
2023/04/23 08:34:59;;;;;;;21.13;12.02;;;;;;;14.68;65.65;95953.38;2074432;28;20208;-59
2023/04/23 08:36:00;;;;;;;2.38;1.58;;;;;;;14.69;66.13;95951.59;2073167;28;20260;-59
2023/04/23 08:37:03;;;;;;;78.63;41.95;;;;;;;15.06;65.63;95954.16;2070191;28;20198;-59
2023/04/23 08:38:05;;;;;;;26.15;15.13;;;;;;;15.16;65.03;95955.16;2073865;28;20658;-58
2023/04/23 08:39:07;;;;;;;2.10;1.50;;;;;;;15.07;64.43;95942.72;2081075;28;20216;-58
2023/04/23 08:40:10;;;;;;;2.67;1.48;;;;;;;14.88;64.64;95952.88;2082440;28;20232;-58
2023/04/23 08:41:14;;;;;;;2.40;1.40;;;;;;;14.74;65.01;95946.84;2074987;28;20221;-59
2023/04/23 08:42:47;;;;;;;1.75;1.00;;;;;;;14.57;65.95;95960.34;2073687;28;20224;-59
2023/04/23 08:44:06;;;;;;;5.13;1.48;;;;;;;14.63;65.60;95944.97;2070302;28;20213;-62
2023/04/23 08:45:08;;;;;;;5.65;1.20;;;;;;;14.59;66.15;95950.53;2073610;28;20209;-60
2023/04/23 08:46:12;;;;;;;2.90;1.55;;;;;;;14.63;65.67;95944.13;2073344;28;20856;-61
2023/04/23 08:47:16;;;;;;;1.60;0.95;;;;;;;14.61;65.58;95943.41;2072090;28;20402;-60
2023/04/23 08:48:18;;;;;;;2.45;1.60;;;;;;;14.84;65.20;95941.75;2070455;28;20336;-60
2023/04/23 08:49:20;;;;;;;1.83;1.00;;;;;;;14.83;64.97;95946.19;2074210;28;20198;-60
2023/04/23 08:50:22;;;;;;;1.50;1.10;;;;;;;14.77;64.89;95937.91;2075002;28;20201;-60
2023/04/23 08:51:27;;;;;;;1.73;1.13;;;;;;;15.10;64.22;95941.66;2073902;28;20229;-60
2023/04/23 08:52:33;;;;;;;4.50;1.27;;;;;;;15.04;64.55;95932.41;2074016;28;20237;-61
2023/04/23 08:53:36;;;;;;;3.13;1.30;;;;;;;15.01;63.71;95943.97;2074455;28;20766;-60
2023/04/23 08:54:43;;;;;;;1.80;0.90;;;;;;;14.94;62.81;95942.75;2074243;28;20205;-60
2023/04/23 08:55:48;;;;;;;4.28;1.20;;;;;;;14.85;62.86;95949.53;2069805;28;20804;-60
2023/04/23 08:56:50;;;;;;;2.70;1.40;;;;;;;14.70;62.80;95942.75;2072452;28;20632;-60
2023/04/23 08:57:52;;;;;;;2.72;1.27;;;;;;;14.63;63.51;95937.06;2073555;28;20297;-60
2023/04/23 08:58:53;;;;;;;2.33;1.20;;;;;;;14.65;62.98;95937.00;2072881;28;20247;-60
2023/04/23 08:59:58;;;;;;;6.93;1.20;;;;;;;14.78;63.36;95935.16;2073565;28;20882;-60
2023/04/23 09:01:00;;;;;;;1.50;1.00;;;;;;;14.98;63.34;95938.09;2074540;28;20228;-60
2023/04/23 09:02:06;;;;;;;2.35;1.17;;;;;;;15.11;63.17;95933.63;2072356;28;20236;-60
2023/04/23 09:03:08;;;;;;;2.72;1.10;;;;;;;15.19;63.77;95928.63;2074629;28;20193;-60
2023/04/23 09:04:15;;;;;;;4.60;1.30;;;;;;;15.42;62.57;95935.75;2068013;28;20934;-60
2023/04/23 09:05:17;;;;;;;2.85;1.20;;;;;;;15.44;60.88;95928.56;2066104;28;20259;-60
2023/04/23 09:06:18;;;;;;;3.05;1.00;;;;;;;15.47;60.43;95934.44;2066045;28;20233;-60
2023/04/23 09:07:20;;;;;;;2.47;1.10;;;;;;;15.27;61.12;95929.84;2064838;28;20203;-60
2023/04/23 09:08:21;;;;;;;3.60;1.50;;;;;;;15.23;62.15;95931.03;2066049;28;20198;-60
2023/04/23 09:09:23;;;;;;;2.25;1.10;;;;;;;15.23;61.71;95926.59;2067143;28;20538;-60
2023/04/23 09:10:24;;;;;;;2.42;1.20;;;;;;;15.04;61.44;95934.22;2064790;28;20285;-60
2023/04/23 09:11:27;;;;;;;1.88;1.20;;;;;;;14.71;62.01;95930.47;2066777;28;20261;-60
2023/04/23 09:12:29;;;;;;;2.03;1.05;;;;;;;14.75;61.90;95931.91;2068162;28;20654;-60
2023/04/23 09:13:34;;;;;;;2.25;1.27;;;;;;;14.68;62.29;95931.53;2067890;28;20203;-60
2023/04/23 09:14:36;;;;;;;3.08;1.30;;;;;;;14.67;62.43;95929.84;2068875;28;20283;-60
2023/04/23 09:15:42;;;;;;;1.55;1.25;;;;;;;14.89;62.28;95929.09;2069572;28;20194;-60
2023/04/23 09:16:43;;;;;;;2.65;1.45;;;;;;;15.06;59.60;95921.75;2066845;28;20212;-60
2023/04/23 09:17:46;;;;;;;3.40;1.73;;;;;;;15.12;61.07;95921.31;2067088;28;20202;-60
2023/04/23 09:18:50;;;;;;;2.75;1.35;;;;;;;15.00;62.34;95913.38;2066970;28;20205;-60
2023/04/23 09:19:53;;;;;;;3.97;1.20;;;;;;;15.11;60.91;95911.75;2068637;28;20197;-60
2023/04/23 09:20:54;;;;;;;3.80;1.50;;;;;;;15.52;60.23;95918.31;2067164;28;20222;-61
2023/04/23 09:21:57;;;;;;;3.05;1.00;;;;;;;15.42;59.81;95914.72;2068644;28;20202;-60
2023/04/23 09:22:59;;;;;;;3.33;1.20;;;;;;;15.25;59.14;95915.97;2064549;28;20665;-60
2023/04/23 09:24:04;;;;;;;5.18;1.33;;;;;;;15.30;59.22;95913.81;2064887;28;20260;-60
2023/04/23 09:25:10;;;;;;;4.18;1.20;;;;;;;15.47;58.50;95915.19;2064473;28;20198;-61
2023/04/23 09:26:20;;;;;;;4.70;1.00;;;;;;;15.83;58.19;95901.06;2065127;28;20229;-60
2023/04/23 09:27:24;;;;;;;1.95;1.20;;;;;;;16.31;56.35;95909.63;2066993;28;20202;-60
2023/04/23 09:28:36;;;;;;;5.03;1.00;;;;;;;16.51;55.78;95899.31;2067371;28;20251;-61
2023/04/23 09:29:37;;;;;;;2.40;1.20;;;;;;;16.72;55.16;95900.22;2067148;28;20210;-60
2023/04/23 09:30:43;;;;;;;2.22;1.10;;;;;;;17.25;55.76;95902.03;2067647;28;20249;-61
2023/04/23 09:31:50;;;;;;;3.30;1.00;;;;;;;17.20;55.65;95904.22;2065652;28;20653;-61
2023/04/23 09:32:52;;;;;;;2.40;1.10;;;;;;;16.67;54.31;95891.00;2066273;28;20317;-61
2023/04/23 09:33:54;;;;;;;2.65;1.10;;;;;;;16.79;53.87;95890.81;2066253;28;20198;-60
2023/04/23 09:34:55;;;;;;;3.63;1.00;;;;;;;17.59;51.87;95895.75;2067225;28;20761;-61
2023/04/23 09:35:57;;;;;;;2.40;1.10;;;;;;;17.78;52.09;95889.72;2069143;28;20230;-60
2023/04/23 09:36:59;;;;;;;1.40;1.00;;;;;;;17.54;52.19;95892.66;2067622;28;20283;-61
2023/04/23 09:38:04;;;;;;;1.90;1.00;;;;;;;16.93;53.74;95884.44;2064742;28;20911;-60
2023/04/23 09:39:14;;;;;;;3.17;1.25;;;;;;;16.13;54.86;95886.41;2064680;28;20709;-62
2023/04/23 09:40:19;;;;;;;1.60;1.00;;;;;;;16.00;54.89;95886.56;2065958;28;20199;-60
2023/04/23 09:41:25;;;;;;;4.32;1.45;;;;;;;15.97;54.84;95892.06;2067846;28;20226;-60
2023/04/23 09:42:27;;;;;;;1.73;1.08;;;;;;;16.14;54.89;95888.09;2071440;28;20194;-61
2023/04/23 09:43:32;;;;;;;2.95;1.23;;;;;;;16.37;54.19;95879.34;2059168;28;20194;-61
2023/04/23 09:44:34;;;;;;;1.50;1.02;;;;;;;16.38;53.78;95878.34;2063954;28;20292;-61
2023/04/23 09:45:35;;;;;;;2.65;0.98;;;;;;;16.72;53.50;95883.53;2067008;28;20204;-60
2023/04/23 09:46:40;;;;;;;3.55;1.40;;;;;;;16.76;53.60;95883.19;2067601;28;20206;-61
2023/04/23 09:47:53;;;;;;;1.92;1.25;;;;;;;16.64;54.21;95871.81;2066997;28;20220;-61
2023/04/23 09:48:55;;;;;;;2.95;1.10;;;;;;;17.07;53.31;95877.22;2066359;28;20278;-61
2023/04/23 09:49:58;;;;;;;1.58;1.10;;;;;;;16.89;53.16;95884.81;2066532;28;20201;-61
2023/04/23 09:51:01;;;;;;;1.48;0.98;;;;;;;16.98;52.95;95890.19;2066069;28;20230;-60
2023/04/23 09:52:06;;;;;;;1.20;0.90;;;;;;;16.92;51.83;95880.13;2065731;28;20217;-60
2023/04/23 09:53:08;;;;;;;2.60;1.00;;;;;;;17.60;51.66;95877.13;2070608;28;20189;-61
2023/04/23 09:54:15;;;;;;;1.98;1.10;;;;;;;17.50;51.19;95876.25;2068325;28;20189;-61
2023/04/23 09:55:27;;;;;;;1.67;1.00;;;;;;;16.83;52.83;95880.88;2070592;28;20860;-61
2023/04/23 09:56:30;;;;;;;3.10;1.20;;;;;;;16.92;52.89;95869.59;2069209;28;20689;-61
2023/04/23 09:57:49;;;;;;;2.30;1.13;;;;;;;17.12;52.82;95878.47;2065495;28;20195;-60
2023/04/23 09:58:50;;;;;;;1.33;0.98;;;;;;;17.48;51.88;95874.69;2067960;28;20703;-59
2023/04/23 09:59:55;;;;;;;5.50;1.20;;;;;;;17.24;51.17;95871.38;2067933;28;20233;-59
2023/04/23 10:01:14;;;;;;;2.55;1.00;;;;;;;17.33;52.11;95877.69;2067333;28;20259;-59
2023/04/23 10:02:16;;;;;;;2.83;1.35;;;;;;;17.71;50.42;95870.94;2064440;28;20233;-59
2023/04/23 10:03:26;;;;;;;2.40;1.08;;;;;;;17.46;50.51;95866.91;2065700;28;20225;-59
2023/04/23 10:04:27;;;;;;;1.95;1.25;;;;;;;17.48;51.38;95867.59;2067762;28;20202;-59
2023/04/23 10:05:29;;;;;;;3.13;1.10;;;;;;;17.40;51.55;95864.78;2069639;28;20203;-58
2023/04/23 10:06:59;;;;;;;9.25;3.97;;;;;;;17.09;51.42;95857.66;2068563;28;20244;-62
2023/04/23 10:08:20;;;;;;;1.52;1.00;;;;;;;17.29;53.28;95865.69;2066984;28;20573;-59
2023/04/23 10:09:23;;;;;;;2.10;1.00;;;;;;;16.77;53.08;95855.00;2067616;28;20201;-59
2023/04/23 10:10:25;;;;;;;1.55;0.93;;;;;;;17.03;52.56;95849.44;2067835;28;20438;-60
2023/04/23 10:11:27;;;;;;;1.55;0.90;;;;;;;16.52;52.85;95858.81;2066431;28;20226;-59
2023/04/23 10:12:29;;;;;;;3.65;1.10;;;;;;;16.40;53.54;95853.56;2069410;28;20206;-59
2023/04/23 10:13:53;;;;;;;1.92;0.90;;;;;;;16.41;53.44;95857.06;2068020;28;20256;-59
2023/04/23 10:14:56;;;;;;;1.88;1.20;;;;;;;16.37;53.47;95861.72;2068395;28;20198;-61
2023/04/23 10:15:58;;;;;;;3.65;0.85;;;;;;;16.25;53.91;95858.28;2066789;28;20694;-61
2023/04/23 10:17:15;;;;;;;1.75;1.00;;;;;;;16.32;54.32;95850.72;2067949;28;20233;-61
2023/04/23 10:18:19;;;;;;;2.67;1.23;;;;;;;16.63;53.35;95857.00;2066759;28;20203;-59
2023/04/23 10:19:22;;;;;;;1.90;1.00;;;;;;;16.79;53.18;95853.09;2067128;28;20209;-59
2023/04/23 10:20:24;;;;;;;4.50;1.00;;;;;;;17.17;52.55;95853.53;2068683;28;20213;-59
2023/04/23 10:21:29;;;;;;;3.47;0.90;;;;;;;16.55;52.84;95840.13;2066672;28;20794;-59
2023/04/23 10:22:47;;;;;;;5.13;1.38;;;;;;;16.76;52.41;95816.41;2066660;28;20755;-59
2023/04/23 10:23:50;;;;;;;5.13;1.10;;;;;;;17.39;51.53;95844.66;2064295;28;20195;-59
2023/04/23 10:24:54;;;;;;;1.10;0.80;;;;;;;17.43;51.61;95840.78;2067281;28;20682;-61
2023/04/23 10:25:59;;;;;;;1.60;1.02;;;;;;;17.95;51.34;95841.59;2067061;28;20225;-59
2023/04/23 10:27:03;;;;;;;4.38;0.85;;;;;;;17.68;52.38;95839.50;2064594;28;20698;-59
2023/04/23 10:28:07;;;;;;;1.98;0.70;;;;;;;17.81;52.56;95836.63;2065019;28;20201;-60
2023/04/23 10:29:15;;;;;;;3.47;0.95;;;;;;;17.85;51.30;95843.34;2066892;28;20213;-60
2023/04/23 10:30:17;;;;;;;2.13;0.90;;;;;;;17.86;51.52;95834.44;2067180;28;20642;-59
2023/04/23 10:31:19;;;;;;;3.03;1.02;;;;;;;17.85;51.37;95830.16;2067544;28;20375;-61
2023/04/23 10:32:23;;;;;;;5.88;3.25;;;;;;;17.61;51.78;95833.06;2068116;28;20281;-60
2023/04/23 10:33:25;;;;;;;2.97;1.38;;;;;;;17.55;51.62;95836.28;2068364;28;20260;-59
2023/04/23 10:34:35;;;;;;;13.77;5.85;;;;;;;17.16;53.15;95838.69;2067341;28;20206;-58
2023/04/23 10:35:37;;;;;;;1.90;1.35;;;;;;;17.01;53.30;95838.97;2063262;28;20218;-59
2023/04/23 10:36:39;;;;;;;3.08;1.13;;;;;;;16.77;54.47;95847.94;2065052;28;20206;-58
2023/04/23 10:37:41;;;;;;;2.45;1.00;;;;;;;16.69;54.14;95842.47;2067625;28;20205;-59
2023/04/23 10:38:44;;;;;;;24.00;11.38;;;;;;;16.54;54.58;95835.81;2066851;28;20678;-58
2023/04/23 10:40:07;;;;;;;2.35;1.80;;;;;;;17.00;53.92;95825.94;2062678;28;20719;-61
2023/04/23 10:41:10;;;;;;;1.85;1.00;;;;;;;17.01;54.04;95824.97;2066178;28;20249;-60
2023/04/23 10:42:12;;;;;;;6.10;2.72;;;;;;;17.43;52.71;95827.56;2067339;28;20638;-60
2023/04/23 10:43:14;;;;;;;14.05;5.82;;;;;;;17.25;52.77;95829.97;2067954;28;20292;-60
2023/04/23 10:44:22;;;;;;;2.55;1.20;;;;;;;16.70;53.14;95820.41;2068993;28;20194;-60
2023/04/23 10:45:43;;;;;;;3.95;1.67;;;;;;;16.95;51.88;95821.88;2065443;28;20210;-60
2023/04/23 10:46:53;;;;;;;2.40;0.90;;;;;;;17.06;52.46;95814.88;2067061;28;20203;-60
2023/04/23 10:47:55;;;;;;;1.83;0.90;;;;;;;17.21;51.98;95815.38;2067885;28;20230;-60
2023/04/23 10:49:14;;;;;;;1.52;1.10;;;;;;;16.97;51.99;95821.75;2070301;28;20208;-60
2023/04/23 10:50:21;;;;;;;2.55;1.00;;;;;;;17.05;51.53;95818.47;2067694;28;20194;-60
2023/04/23 10:51:32;;;;;;;2.63;1.08;;;;;;;17.22;52.49;95824.97;2067195;28;20251;-60
2023/04/23 10:52:56;;;;;;;1.45;0.80;;;;;;;17.36;51.04;95818.53;2067315;28;20202;-60
2023/04/23 10:53:58;;;;;;;1.52;0.85;;;;;;;17.45;51.02;95810.63;2075451;28;20296;-59
2023/04/23 10:55:00;;;;;;;4.60;0.82;;;;;;;17.40;51.64;95807.56;2067693;28;20453;-59
2023/04/23 10:56:06;;;;;;;1.60;0.90;;;;;;;17.41;52.35;95811.88;2066899;28;20226;-58
2023/04/23 10:57:09;;;;;;;2.15;1.20;;;;;;;17.33;51.33;95819.63;2066046;28;20187;-58
2023/04/23 10:58:11;;;;;;;1.60;0.90;;;;;;;17.43;50.42;95811.75;2071429;28;20204;-59
2023/04/23 10:59:20;;;;;;;2.00;0.80;;;;;;;17.29;51.91;95810.28;2071343;28;20204;-58
2023/04/23 11:00:22;;;;;;;2.47;0.88;;;;;;;17.30;52.43;95809.31;2066766;28;20189;-59
2023/04/23 11:01:26;;;;;;;3.50;0.95;;;;;;;16.99;51.93;95798.75;2063384;28;20222;-58
2023/04/23 11:02:42;;;;;;;1.98;0.80;;;;;;;16.94;52.21;95817.56;2065519;28;20208;-58
2023/04/23 11:03:44;;;;;;;4.95;0.70;;;;;;;16.93;51.73;95813.25;2064120;28;20206;-58
2023/04/23 11:04:53;;;;;;;2.22;1.00;;;;;;;17.08;52.09;95808.50;2064995;28;20198;-58
2023/04/23 11:05:55;;;;;;;2.95;0.93;;;;;;;17.22;51.97;95812.63;2070283;28;20224;-58
2023/04/23 11:07:04;;;;;;;1.50;0.80;;;;;;;18.05;50.78;95814.38;2071141;28;20236;-59
2023/04/23 11:08:07;;;;;;;2.03;0.80;;;;;;;18.41;48.39;95802.34;2063932;28;20293;-58
2023/04/23 11:09:31;;;;;;;1.20;0.90;;;;;;;18.17;48.67;95809.81;2066964;28;20198;-58
2023/04/23 11:10:33;;;;;;;2.00;0.82;;;;;;;17.89;49.18;95806.91;2061762;28;20961;-59
2023/04/23 11:11:40;;;;;;;1.63;1.00;;;;;;;17.70;50.18;95803.25;2065178;28;20225;-59
2023/04/23 11:12:43;;;;;;;1.50;0.88;;;;;;;17.45;50.46;95808.00;2066102;28;20228;-59
2023/04/23 11:13:52;;;;;;;1.20;0.80;;;;;;;17.44;50.28;95808.16;2070158;28;20650;-59
2023/04/23 11:14:54;;;;;;;2.00;1.00;;;;;;;17.63;51.11;95808.22;2067684;28;20232;-59
2023/04/23 11:16:21;;;;;;;1.75;0.82;;;;;;;17.56;50.73;95806.25;2067553;28;20230;-59
2023/04/23 11:17:42;;;;;;;1.48;0.90;;;;;;;16.71;51.33;95795.72;2067615;28;20194;-59
2023/04/23 11:19:07;;;;;;;2.38;0.85;;;;;;;17.03;50.93;95792.22;2067465;28;20218;-60
2023/04/23 11:20:12;;;;;;;3.60;0.88;;;;;;;17.18;51.21;95791.88;2067362;28;20202;-59
2023/04/23 11:21:14;;;;;;;2.28;1.08;;;;;;;17.27;51.17;95786.69;2065913;28;20386;-59
2023/04/23 11:22:19;;;;;;;1.77;0.85;;;;;;;17.25;51.38;95780.69;2066422;28;20197;-59
2023/04/23 11:23:33;;;;;;;12.07;7.07;;;;;;;17.33;51.06;95780.06;2066040;28;20234;-59
2023/04/23 11:24:40;;;;;;;13.88;8.07;;;;;;;17.28;50.73;95792.78;2063961;28;20201;-59
2023/04/23 11:25:43;;;;;;;2.20;1.20;;;;;;;16.90;51.07;95781.00;2065460;28;20821;-60
2023/04/23 11:26:47;;;;;;;1.70;1.00;;;;;;;16.86;51.26;95779.59;2069521;28;20208;-59
2023/04/23 11:27:50;;;;;;;1.20;0.70;;;;;;;17.25;50.67;95777.22;2066736;28;20566;-59
2023/04/23 11:28:53;;;;;;;1.10;0.70;;;;;;;17.72;50.36;95779.38;2065735;28;20209;-59
2023/04/23 11:29:55;;;;;;;1.52;0.80;;;;;;;17.05;50.21;95777.13;2063753;28;20546;-59
2023/04/23 11:31:00;;;;;;;3.92;0.82;;;;;;;17.19;50.84;95778.59;2066628;28;20677;-60
2023/04/23 11:32:01;;;;;;;1.50;0.90;;;;;;;17.24;50.45;95778.19;2068008;28;20198;-59
2023/04/23 11:33:04;;;;;;;1.75;1.10;;;;;;;17.44;50.36;95772.03;2064965;28;20206;-59
2023/04/23 11:34:08;;;;;;;1.30;0.70;;;;;;;17.56;51.03;95756.94;2067383;28;20210;-59
2023/04/23 11:35:12;;;;;;;1.33;0.82;;;;;;;17.76;50.12;95765.78;2067293;28;20206;-60
2023/04/23 11:36:14;;;;;;;1.63;0.73;;;;;;;18.19;49.38;95770.88;2066106;28;20245;-60
2023/04/23 11:37:17;;;;;;;4.22;0.90;;;;;;;18.36;50.57;95764.09;2067016;28;20245;-59
2023/04/23 11:38:19;;;;;;;1.67;0.90;;;;;;;18.42;49.13;95763.53;2067254;28;20572;-61
2023/04/23 11:39:23;;;;;;;2.20;0.90;;;;;;;18.24;48.84;95769.50;2067487;28;20197;-61
2023/04/23 11:40:24;;;;;;;3.00;0.90;;;;;;;18.37;49.05;95763.13;2067733;28;20219;-61
2023/04/23 11:41:28;;;;;;;2.10;0.88;;;;;;;18.43;48.98;95765.22;2065539;28;20230;-61
2023/04/23 11:42:30;;;;;;;1.25;0.80;;;;;;;18.27;49.54;95757.81;2066391;28;20591;-61
2023/04/23 11:43:32;;;;;;;2.85;0.70;;;;;;;17.99;49.27;95757.66;2063628;28;20202;-61
2023/04/23 11:44:37;;;;;;;1.40;0.80;;;;;;;18.47;48.92;95744.63;2064257;28;20233;-62
2023/04/23 11:45:38;;;;;;;1.95;0.90;;;;;;;19.28;48.60;95746.88;2065821;28;20197;-61
2023/04/23 11:46:40;;;;;;;1.83;0.80;;;;;;;19.61;47.61;95743.84;2067131;28;20873;-62
2023/04/23 11:47:43;;;;;;;1.63;0.80;;;;;;;20.12;46.18;95747.75;2066617;28;20202;-61
2023/04/23 11:48:47;;;;;;;3.00;0.93;;;;;;;20.29;46.20;95743.44;2066090;28;20194;-62
2023/04/23 11:49:48;;;;;;;1.20;0.65;;;;;;;20.62;45.33;95738.44;2065399;28;20205;-62
2023/04/23 11:50:51;;;;;;;2.60;1.00;;;;;;;20.11;46.04;95735.47;2066205;28;21192;-62
2023/04/23 11:51:53;;;;;;;1.20;0.80;;;;;;;19.80;46.60;95740.25;2063675;28;20232;-62
2023/04/23 11:52:55;;;;;;;1.00;0.70;;;;;;;19.48;47.32;95747.66;2064038;28;20713;-63
2023/04/23 11:54:03;;;;;;;1.52;0.90;;;;;;;19.21;47.56;95746.63;2066045;28;20257;-62
2023/04/23 11:55:05;;;;;;;2.08;0.90;;;;;;;19.13;47.98;95740.38;2063681;28;20285;-62
2023/04/23 11:56:06;;;;;;;1.30;0.80;;;;;;;19.27;47.58;95744.38;2063559;28;20233;-62
2023/04/23 11:57:08;;;;;;;2.65;0.80;;;;;;;18.96;48.74;95729.56;2063622;28;20202;-62
2023/04/23 11:58:10;;;;;;;2.17;1.00;;;;;;;19.15;46.97;95733.16;2064100;28;20213;-62
2023/04/23 11:59:12;;;;;;;3.22;0.80;;;;;;;19.29;47.57;95723.88;2065894;28;20346;-62
2023/04/23 12:00:25;;;;;;;2.08;0.85;;;;;;;18.77;47.67;95662.47;2066614;28;20564;-62
2023/04/23 12:01:26;;;;;;;1.40;0.93;;;;;;;19.39;48.12;95720.22;2065042;28;20233;-62
2023/04/23 12:02:28;;;;;;;1.95;0.90;;;;;;;19.13;48.73;95722.69;2066815;28;20221;-62
2023/04/23 12:03:29;;;;;;;2.00;1.10;;;;;;;18.93;49.03;95721.91;2067045;28;20233;-62
2023/04/23 12:04:32;;;;;;;1.17;0.73;;;;;;;19.22;48.10;95721.84;2067986;28;20296;-64
2023/04/23 12:05:42;;;;;;;1.70;0.90;;;;;;;19.31;48.34;95717.50;2066632;28;20289;-62
2023/04/23 12:06:45;;;;;;;2.20;0.82;;;;;;;18.92;48.72;95712.31;2065729;28;20633;-63
2023/04/23 12:07:49;;;;;;;1.60;0.70;;;;;;;19.14;48.98;95707.66;2066956;28;20209;-63
2023/04/23 12:08:51;;;;;;;1.30;0.70;;;;;;;19.30;48.25;95701.72;2069092;28;20616;-63
2023/04/23 12:09:58;;;;;;;1.10;0.70;;;;;;;19.74;47.92;95712.53;2068055;28;20201;-62
2023/04/23 12:11:05;;;;;;;1.75;0.70;;;;;;;19.66;47.84;95709.81;2067771;28;21049;-63
2023/04/23 12:12:06;;;;;;;1.10;0.70;;;;;;;19.62;47.52;95703.97;2068921;28;20234;-62
2023/04/23 12:13:13;;;;;;;2.65;0.70;;;;;;;19.08;47.18;95693.19;2067948;28;20206;-63
2023/04/23 12:14:14;;;;;;;1.83;0.85;;;;;;;18.91;47.86;95684.19;2066777;28;20197;-62
2023/04/23 12:15:16;;;;;;;1.85;1.05;;;;;;;19.08;47.56;95694.03;2064922;28;20252;-63